Time;durP1;ratioP1;P1;durP2;ratioP2;P2;SDS_P1;SDS_P2;PMS_P1;PMS_P2;Temp;Humidity;BMP_temperature;BMP_pressure;BME280_temperature;BME280_humidity;BME280_pressure;Samples;Min_cycle;Max_cycle;Signal;HPM_P1;HPM_P2
2022/02/24 00:00:12;;;;;;;6.27;4.53;;;5.50;99.90;;;;;;5028992;28;20218;-63
2022/02/24 00:02:38;;;;;;;4.72;4.00;;;5.70;99.90;;;;;;5012196;28;20470;-63
2022/02/24 00:05:04;;;;;;;4.47;4.07;;;5.60;99.90;;;;;;5025359;28;20195;-63
2022/02/24 00:07:29;;;;;;;7.30;3.90;;;5.60;99.90;;;;;;5026813;28;20824;-62
2022/02/24 00:09:55;;;;;;;5.67;3.70;;;5.50;99.90;;;;;;5020533;28;20184;-62
2022/02/24 00:12:21;;;;;;;3.83;3.43;;;5.90;99.90;;;;;;5026065;28;20196;-63
2022/02/24 00:14:47;;;;;;;4.90;3.53;;;5.40;99.90;;;;;;5031900;28;20266;-63
2022/02/24 00:17:12;;;;;;;4.63;3.80;;;5.80;99.90;;;;;;5029528;28;20206;-63
2022/02/24 00:19:38;;;;;;;4.37;3.97;;;6.40;99.90;;;;;;5016146;28;20447;-63
2022/02/24 00:22:04;;;;;;;3.30;3.00;;;5.80;99.90;;;;;;5014635;28;20706;-63
2022/02/24 00:24:30;;;;;;;4.07;3.50;;;6.10;99.90;;;;;;5021494;28;20278;-63
2022/02/24 00:26:56;;;;;;;3.97;3.57;;;6.00;99.90;;;;;;5019939;28;20242;-62
2022/02/24 00:29:21;;;;;;;3.80;3.40;;;6.20;99.90;;;;;;5030577;28;20186;-63
2022/02/24 00:31:47;;;;;;;3.73;3.43;;;5.90;99.90;;;;;;5019117;28;20468;-63
2022/02/24 00:34:15;;;;;;;3.80;3.20;;;6.20;99.90;;;;;;5014533;28;20524;-63
2022/02/24 00:36:40;;;;;;;3.13;2.90;;;6.20;99.90;;;;;;5017252;28;20192;-63
2022/02/24 00:39:06;;;;;;;4.80;3.20;;;6.30;99.90;;;;;;5029050;28;20193;-63
2022/02/24 00:41:31;;;;;;;3.10;2.80;;;6.30;99.90;;;;;;5029643;28;20208;-63
2022/02/24 00:43:57;;;;;;;3.30;3.00;;;6.30;99.90;;;;;;5023800;28;20242;-63
2022/02/24 00:46:23;;;;;;;5.90;2.97;;;6.60;99.90;;;;;;5029739;28;20726;-62
2022/02/24 00:48:48;;;;;;;3.80;2.83;;;6.70;99.90;;;;;;5023461;28;20294;-63
2022/02/24 00:51:14;;;;;;;5.50;3.47;;;6.60;99.90;;;;;;5028421;28;20205;-63
2022/02/24 00:53:41;;;;;;;3.43;2.80;;;6.70;99.90;;;;;;5014603;28;20299;-63
2022/02/24 00:56:08;;;;;;;4.38;3.50;;;6.70;99.90;;;;;;5027277;28;20222;-63
2022/02/24 00:58:34;;;;;;;6.63;3.08;;;6.70;99.90;;;;;;5029025;28;20190;-63
2022/02/24 01:01:00;;;;;;;3.13;2.83;;;6.50;99.90;;;;;;5026471;28;20871;-63
2022/02/24 01:03:25;;;;;;;4.33;3.07;;;6.60;99.90;;;;;;5019845;28;20532;-63
2022/02/24 01:05:51;;;;;;;4.87;3.47;;;6.70;99.90;;;;;;5017852;28;20613;-63
2022/02/24 01:08:17;;;;;;;2.90;2.70;;;6.70;99.90;;;;;;5022279;28;20214;-63
2022/02/24 01:10:42;;;;;;;2.97;2.60;;;6.70;99.90;;;;;;5029311;28;20678;-62
2022/02/24 01:13:08;;;;;;;2.70;2.50;;;7.00;99.90;;;;;;5014345;28;20552;-63
2022/02/24 01:15:38;;;;;;;3.23;2.93;;;7.00;99.90;;;;;;5015578;28;20613;-63
2022/02/24 01:18:04;;;;;;;3.85;2.75;;;7.00;99.90;;;;;;5028275;28;20197;-62
2022/02/24 01:20:30;;;;;;;2.90;2.60;;;7.00;99.90;;;;;;5017878;28;20856;-63
2022/02/24 01:22:56;;;;;;;3.53;2.77;;;7.00;99.90;;;;;;5018199;28;20214;-63
2022/02/24 01:25:21;;;;;;;4.83;2.93;;;6.70;99.90;;;;;;5028422;28;20194;-63
2022/02/24 01:27:47;;;;;;;3.03;2.33;;;7.20;99.90;;;;;;5023460;28;20217;-63
2022/02/24 01:30:13;;;;;;;3.00;2.67;;;7.00;99.90;;;;;;5029018;28;20232;-63
2022/02/24 01:32:39;;;;;;;2.88;2.63;;;7.10;99.90;;;;;;5015769;28;20301;-63
2022/02/24 01:35:05;;;;;;;3.60;2.80;;;7.40;99.90;;;;;;5018276;28;20282;-63
2022/02/24 01:37:31;;;;;;;2.22;2.10;;;7.40;99.90;;;;;;5028747;28;20186;-63
2022/02/24 01:39:57;;;;;;;4.33;2.63;;;7.50;99.90;;;;;;5029480;28;20193;-63
2022/02/24 01:42:23;;;;;;;2.77;2.57;;;7.50;99.90;;;;;;5023946;28;20298;-63
2022/02/24 01:44:49;;;;;;;2.60;2.40;;;7.00;99.90;;;;;;5024121;28;20615;-63
2022/02/24 01:47:15;;;;;;;4.60;2.72;;;7.70;99.90;;;;;;5028032;28;20209;-63
2022/02/24 01:49:42;;;;;;;3.00;2.30;;;7.40;99.90;;;;;;5025381;28;20723;-63
2022/02/24 01:52:09;;;;;;;2.95;2.65;;;7.80;99.90;;;;;;5025607;28;20458;-63
2022/02/24 01:54:36;;;;;;;4.63;2.90;;;7.80;99.90;;;;;;5024937;28;20707;-62
2022/02/24 01:57:04;;;;;;;2.80;2.60;;;7.80;99.90;;;;;;5029855;28;20196;-63
2022/02/24 01:59:30;;;;;;;3.03;2.75;;;7.50;99.90;;;;;;5030563;28;20186;-63
2022/02/24 02:01:56;;;;;;;2.97;2.78;;;7.30;99.90;;;;;;5022650;28;20305;-63
2022/02/24 02:04:23;;;;;;;3.08;2.83;;;7.20;99.90;;;;;;5019518;28;20710;-63
2022/02/24 02:06:49;;;;;;;3.75;2.90;;;6.90;99.90;;;;;;5032503;28;20686;-63
2022/02/24 02:09:16;;;;;;;4.85;2.80;;;7.20;99.90;;;;;;5033090;28;20210;-63
2022/02/24 02:11:42;;;;;;;2.60;2.40;;;7.00;99.90;;;;;;5031153;28;20274;-63
2022/02/24 02:14:11;;;;;;;2.87;2.50;;;7.00;99.90;;;;;;5028635;28;20190;-63
2022/02/24 02:16:45;;;;;;;4.03;2.35;;;6.90;99.90;;;;;;5028614;28;20362;-63
2022/02/24 02:19:11;;;;;;;2.83;2.50;;;6.70;99.90;;;;;;5028890;28;20212;-63
2022/02/24 02:21:36;;;;;;;4.67;2.83;;;6.90;99.90;;;;;;5031948;28;20205;-63
2022/02/24 02:24:03;;;;;;;3.07;2.77;;;6.90;99.90;;;;;;5026438;28;20189;-63
2022/02/24 02:26:31;;;;;;;3.00;2.70;;;6.80;99.90;;;;;;5028868;28;20773;-63
2022/02/24 02:29:00;;;;;;;3.88;2.95;;;7.00;99.90;;;;;;5032140;28;20203;-63
2022/02/24 02:31:26;;;;;;;3.85;2.80;;;6.90;99.90;;;;;;5028349;28;20683;-63
2022/02/24 02:34:01;;;;;;;4.30;2.53;;;6.70;99.90;;;;;;5011130;28;20183;-62
2022/02/24 02:36:27;;;;;;;5.03;3.03;;;6.90;99.90;;;;;;5027915;28;20451;-63
2022/02/24 02:38:52;;;;;;;2.60;2.40;;;6.40;99.90;;;;;;5028632;28;20525;-63
2022/02/24 02:41:18;;;;;;;2.70;2.27;;;7.00;99.90;;;;;;5033044;28;20210;-63
2022/02/24 02:43:44;;;;;;;2.50;2.30;;;6.90;99.90;;;;;;5020144;28;20199;-63
2022/02/24 02:46:10;;;;;;;3.30;2.47;;;7.10;99.90;;;;;;5029471;28;20418;-63
2022/02/24 02:48:37;;;;;;;3.65;2.60;;;7.20;99.90;;;;;;5027853;28;20211;-64
2022/02/24 02:51:02;;;;;;;3.00;2.70;;;7.10;99.90;;;;;;5031368;28;20332;-63
2022/02/24 02:53:28;;;;;;;2.63;2.40;;;7.00;99.90;;;;;;5025149;28;20186;-63
2022/02/24 02:55:54;;;;;;;3.03;2.77;;;7.00;99.90;;;;;;5031643;28;21065;-63
2022/02/24 02:58:19;;;;;;;3.00;2.60;;;6.90;99.90;;;;;;5031588;28;20615;-63
2022/02/24 03:00:45;;;;;;;4.63;4.23;;;6.80;99.90;;;;;;5031308;28;20193;-63
2022/02/24 03:03:11;;;;;;;2.83;2.43;;;6.80;99.90;;;;;;5021623;28;20183;-63
2022/02/24 03:05:36;;;;;;;2.17;2.07;;;6.80;99.90;;;;;;5013036;28;20223;-63
2022/02/24 03:08:05;;;;;;;2.97;2.67;;;6.30;99.90;;;;;;5030228;28;20206;-63
2022/02/24 03:10:31;;;;;;;3.20;2.60;;;6.80;99.90;;;;;;5032049;28;20178;-63
2022/02/24 03:12:56;;;;;;;2.75;2.55;;;6.80;99.90;;;;;;5025777;28;20424;-63
2022/02/24 03:15:22;;;;;;;2.93;2.60;;;6.30;99.90;;;;;;5031784;28;20602;-63
2022/02/24 03:17:49;;;;;;;3.30;3.00;;;6.70;99.90;;;;;;5026090;28;20273;-63
2022/02/24 03:20:15;;;;;;;3.50;2.92;;;7.00;99.90;;;;;;5019779;28;20185;-63
2022/02/24 03:22:40;;;;;;;4.90;3.00;;;7.00;99.90;;;;;;5028365;28;20210;-63
2022/02/24 03:25:06;;;;;;;3.50;3.03;;;6.60;99.90;;;;;;5024075;28;20201;-63
2022/02/24 03:27:32;;;;;;;3.20;2.70;;;6.90;99.90;;;;;;5029210;28;20227;-63
2022/02/24 03:29:58;;;;;;;4.70;2.47;;;6.90;99.90;;;;;;5028728;28;20959;-63
2022/02/24 03:32:24;;;;;;;3.20;2.90;;;7.20;99.90;;;;;;5019503;28;20305;-63
2022/02/24 03:34:50;;;;;;;3.33;2.85;;;7.00;99.90;;;;;;5014252;28;20197;-63
2022/02/24 03:37:16;;;;;;;2.83;2.50;;;6.90;99.90;;;;;;5030399;28;20178;-63
2022/02/24 03:39:42;;;;;;;3.53;3.20;;;7.70;99.90;;;;;;5027938;28;20532;-63
2022/02/24 03:42:08;;;;;;;3.50;2.70;;;7.20;99.90;;;;;;5016441;28;20460;-63
2022/02/24 03:44:34;;;;;;;3.38;2.80;;;7.30;99.90;;;;;;5023218;28;20481;-63
2022/02/24 03:47:00;;;;;;;6.32;5.13;;;7.30;99.90;;;;;;5022213;28;20212;-63
2022/02/24 03:49:25;;;;;;;5.80;2.73;;;7.30;99.90;;;;;;5022200;28;20192;-63
2022/02/24 03:51:51;;;;;;;3.27;2.67;;;7.30;99.90;;;;;;5025097;28;20245;-63
2022/02/24 03:54:18;;;;;;;2.70;2.50;;;7.20;99.90;;;;;;5025672;28;20187;-63
2022/02/24 03:56:44;;;;;;;3.75;3.42;;;7.20;99.90;;;;;;5029390;28;20174;-63
2022/02/24 03:59:10;;;;;;;5.67;3.40;;;7.70;99.90;;;;;;5030436;28;20182;-63
2022/02/24 04:01:35;;;;;;;3.50;2.58;;;7.00;99.90;;;;;;5025226;28;20457;-62
2022/02/24 04:04:01;;;;;;;3.33;2.40;;;7.40;99.90;;;;;;5014901;28;20179;-63
2022/02/24 04:06:27;;;;;;;3.10;2.73;;;7.50;99.90;;;;;;5031025;28;20225;-62
2022/02/24 04:08:52;;;;;;;3.40;3.10;;;7.40;99.90;;;;;;5028614;28;20236;-63
2022/02/24 04:11:18;;;;;;;3.53;2.73;;;7.40;99.90;;;;;;5017564;28;20207;-63
2022/02/24 04:13:44;;;;;;;2.47;2.20;;;7.30;99.90;;;;;;5029020;28;20667;-62
2022/02/24 04:16:09;;;;;;;2.33;2.13;;;7.50;99.90;;;;;;5028958;28;20188;-63
2022/02/24 04:18:35;;;;;;;2.60;2.40;;;7.20;99.90;;;;;;5025658;28;20186;-63
2022/02/24 04:21:00;;;;;;;3.93;2.63;;;7.50;99.90;;;;;;5021517;28;20754;-63
2022/02/24 04:23:26;;;;;;;3.73;2.63;;;7.60;99.90;;;;;;5018449;28;20190;-63
2022/02/24 04:25:52;;;;;;;2.90;2.70;;;6.70;99.90;;;;;;5022074;28;20648;-63
2022/02/24 04:28:17;;;;;;;3.53;3.23;;;7.40;99.90;;;;;;5026512;28;22349;-63
2022/02/24 04:30:43;;;;;;;6.10;3.00;;;7.20;99.90;;;;;;5025446;28;20198;-63
2022/02/24 04:33:09;;;;;;;2.97;2.70;;;7.30;99.90;;;;;;5012900;28;20225;-63
2022/02/24 04:35:35;;;;;;;3.10;2.78;;;7.50;99.90;;;;;;5019360;28;20182;-63
2022/02/24 04:38:01;;;;;;;4.23;3.00;;;7.20;99.90;;;;;;5029086;28;20198;-63
2022/02/24 04:40:27;;;;;;;5.43;3.00;;;7.20;99.90;;;;;;5022090;28;20476;-63
2022/02/24 04:42:52;;;;;;;4.37;3.20;;;7.40;99.90;;;;;;5021470;28;20702;-63
2022/02/24 04:45:18;;;;;;;3.80;3.07;;;7.20;99.90;;;;;;5027621;28;20666;-63
2022/02/24 04:47:44;;;;;;;4.27;3.23;;;7.20;99.90;;;;;;5028637;28;20743;-63
2022/02/24 04:50:10;;;;;;;2.47;2.27;;;7.10;99.90;;;;;;5013433;28;20187;-63
2022/02/24 04:52:37;;;;;;;5.47;4.30;;;7.20;99.90;;;;;;5018624;28;20687;-63
2022/02/24 04:55:06;;;;;;;3.10;2.80;;;7.10;99.90;;;;;;5021689;28;20442;-63
2022/02/24 04:57:32;;;;;;;4.18;3.15;;;7.20;99.90;;;;;;5030377;28;20324;-62
2022/02/24 04:59:58;;;;;;;3.10;2.60;;;7.30;99.90;;;;;;5026227;28;20727;-63
2022/02/24 05:02:23;;;;;;;5.57;3.43;;;7.40;99.90;;;;;;5024256;28;20295;-63
2022/02/24 05:04:50;;;;;;;3.63;2.50;;;6.80;99.90;;;;;;5016690;28;20802;-63
2022/02/24 05:07:16;;;;;;;5.13;2.88;;;7.10;99.90;;;;;;5024571;28;20585;-63
2022/02/24 05:09:42;;;;;;;4.50;2.75;;;7.30;99.90;;;;;;5026036;28;20658;-63
2022/02/24 05:12:08;;;;;;;2.92;2.67;;;7.20;99.90;;;;;;5019967;28;20206;-63
2022/02/24 05:14:34;;;;;;;4.13;3.55;;;7.00;99.90;;;;;;5036543;28;20193;-63
2022/02/24 05:16:59;;;;;;;4.03;2.97;;;7.40;99.90;;;;;;5027924;28;20685;-63
2022/02/24 05:19:25;;;;;;;3.00;2.80;;;7.10;99.90;;;;;;5020698;28;20456;-63
2022/02/24 05:21:51;;;;;;;4.20;2.60;;;7.10;99.90;;;;;;5022603;28;20256;-63
2022/02/24 05:24:17;;;;;;;3.30;3.00;;;7.20;99.90;;;;;;5020812;28;21040;-63
2022/02/24 05:26:43;;;;;;;3.53;3.27;;;7.20;99.90;;;;;;5025129;28;20186;-63
2022/02/24 05:29:09;;;;;;;3.93;2.50;;;7.00;99.90;;;;;;5024711;28;20445;-63
2022/02/24 05:31:35;;;;;;;4.43;3.75;;;7.00;99.90;;;;;;5019907;28;22586;-63
2022/02/24 05:34:00;;;;;;;3.88;3.28;;;7.00;99.90;;;;;;5018909;28;21036;-63
2022/02/24 05:36:26;;;;;;;7.30;3.50;;;6.90;99.90;;;;;;5030313;28;20194;-63
2022/02/24 05:38:54;;;;;;;5.20;3.90;;;7.00;99.90;;;;;;5029130;28;20194;-63
2022/02/24 05:41:20;;;;;;;3.70;3.40;;;7.20;99.90;;;;;;5022483;28;20982;-63
2022/02/24 05:43:47;;;;;;;3.50;3.20;;;6.90;99.90;;;;;;5027221;28;20269;-63
2022/02/24 05:46:13;;;;;;;6.15;3.30;;;6.80;99.90;;;;;;5026304;28;20185;-62
2022/02/24 05:48:38;;;;;;;5.03;4.17;;;6.80;99.90;;;;;;5013519;28;20203;-63
2022/02/24 05:51:04;;;;;;;4.20;3.17;;;7.10;99.90;;;;;;5022966;28;20452;-62
2022/02/24 05:53:30;;;;;;;4.50;4.10;;;7.20;99.90;;;;;;5022190;28;20193;-63
2022/02/24 05:55:55;;;;;;;4.90;4.20;;;6.80;99.90;;;;;;5028606;28;20710;-63
2022/02/24 05:58:21;;;;;;;7.13;4.27;;;6.80;99.90;;;;;;5021451;28;20204;-63
2022/02/24 06:00:47;;;;;;;5.10;3.80;;;6.40;99.90;;;;;;5026170;28;20671;-63
2022/02/24 06:03:12;;;;;;;5.93;4.63;;;7.00;99.90;;;;;;5019135;28;20449;-62
2022/02/24 06:05:39;;;;;;;5.97;4.90;;;6.90;99.90;;;;;;5025513;28;20213;-63
2022/02/24 06:08:05;;;;;;;5.00;4.50;;;6.90;99.90;;;;;;5025148;28;20210;-62
2022/02/24 06:10:31;;;;;;;6.73;4.23;;;6.70;99.90;;;;;;5023816;28;20549;-63
2022/02/24 06:12:58;;;;;;;7.47;5.20;;;7.10;99.90;;;;;;5021438;28;20198;-63
2022/02/24 06:15:24;;;;;;;5.53;4.55;;;7.00;99.90;;;;;;5027665;28;20182;-63
2022/02/24 06:17:51;;;;;;;5.30;4.13;;;7.10;99.90;;;;;;5019296;28;20248;-68
2022/02/24 06:20:16;;;;;;;5.85;4.50;;;7.00;99.90;;;;;;5020122;28;20245;-64
2022/02/24 06:22:42;;;;;;;6.60;4.93;;;7.10;99.90;;;;;;5018823;28;20825;-62
2022/02/24 06:25:08;;;;;;;5.83;4.47;;;7.00;99.90;;;;;;5027320;28;20178;-61
2022/02/24 06:27:34;;;;;;;5.78;5.18;;;7.20;99.90;;;;;;5025295;28;20210;-62
2022/02/24 06:30:01;;;;;;;5.20;4.70;;;7.00;99.90;;;;;;5019438;28;20690;-61
2022/02/24 06:32:27;;;;;;;5.95;5.00;;;7.10;99.90;;;;;;5020221;28;20719;-61
2022/02/24 06:34:55;;;;;;;4.85;4.43;;;7.30;99.90;;;;;;5016735;28;20269;-61
2022/02/24 06:37:21;;;;;;;5.55;4.93;;;6.90;99.90;;;;;;5025854;28;22656;-63
2022/02/24 06:39:47;;;;;;;5.67;5.10;;;7.40;99.90;;;;;;5022357;28;20218;-64
2022/02/24 06:42:13;;;;;;;8.83;5.97;;;7.00;99.90;;;;;;5022854;28;20439;-64
2022/02/24 06:44:39;;;;;;;8.37;5.80;;;7.00;99.90;;;;;;5020655;28;20220;-64
2022/02/24 06:47:05;;;;;;;9.45;5.75;;;7.20;99.90;;;;;;5030025;28;20876;-63
2022/02/24 06:49:31;;;;;;;6.80;5.80;;;7.30;99.90;;;;;;5027268;28;20253;-64
2022/02/24 06:51:57;;;;;;;5.45;4.88;;;7.10;99.90;;;;;;5023085;28;20444;-55
2022/02/24 06:54:25;;;;;;;6.65;5.05;;;7.10;99.90;;;;;;5023034;28;20217;-62
2022/02/24 06:56:50;;;;;;;7.13;5.78;;;7.30;99.90;;;;;;5013448;28;20183;-59
2022/02/24 06:59:16;;;;;;;6.13;5.53;;;7.50;99.90;;;;;;5031253;28;20192;-59
2022/02/24 07:01:42;;;;;;;5.40;4.90;;;7.40;99.90;;;;;;5022357;28;20206;-65
2022/02/24 07:04:08;;;;;;;8.77;6.57;;;7.40;99.90;;;;;;5026118;28;20451;-63
2022/02/24 07:06:34;;;;;;;7.50;6.27;;;7.50;99.90;;;;;;5030892;28;20673;-64
2022/02/24 07:09:00;;;;;;;7.93;6.13;;;7.40;99.90;;;;;;5029293;28;20229;-64
2022/02/24 07:11:26;;;;;;;7.72;6.15;;;7.40;99.90;;;;;;5031412;28;20253;-65
2022/02/24 07:13:51;;;;;;;12.10;7.27;;;8.10;99.90;;;;;;5026909;28;20324;-63
2022/02/24 07:16:17;;;;;;;7.43;5.60;;;7.30;99.90;;;;;;5023918;28;20201;-62
2022/02/24 07:18:43;;;;;;;7.70;6.13;;;7.60;99.90;;;;;;5024218;28;20612;-64
2022/02/24 07:21:08;;;;;;;10.40;6.13;;;7.80;99.90;;;;;;5028851;28;20296;-65
2022/02/24 07:23:34;;;;;;;6.70;5.57;;;7.80;99.90;;;;;;5021413;28;20486;-69
2022/02/24 07:26:00;;;;;;;7.43;6.72;;;7.60;99.90;;;;;;5026263;28;20278;-67
2022/02/24 07:28:26;;;;;;;6.90;6.20;;;8.00;99.90;;;;;;5029328;28;20651;-67
2022/02/24 07:30:52;;;;;;;8.43;5.80;;;8.00;99.90;;;;;;5027877;28;21044;-64
2022/02/24 07:33:18;;;;;;;8.77;6.67;;;7.90;99.90;;;;;;5021085;28;20412;-64
2022/02/24 07:35:44;;;;;;;11.20;6.27;;;8.00;99.90;;;;;;5023442;28;20304;-61
2022/02/24 07:38:09;;;;;;;8.70;5.63;;;8.20;99.90;;;;;;5031160;28;20444;-65
2022/02/24 07:40:35;;;;;;;7.70;5.70;;;8.00;99.90;;;;;;5027245;28;20194;-62
2022/02/24 07:43:01;;;;;;;8.17;6.13;;;8.30;99.90;;;;;;5027272;28;20193;-62
2022/02/24 07:45:27;;;;;;;6.87;5.50;;;8.50;99.90;;;;;;5029885;28;20190;-64
2022/02/24 07:47:52;;;;;;;7.17;5.87;;;8.40;99.90;;;;;;5026587;28;20680;-62
2022/02/24 07:50:18;;;;;;;6.00;5.40;;;8.60;99.90;;;;;;5024437;28;20811;-63
2022/02/24 07:52:44;;;;;;;6.10;5.43;;;8.20;99.90;;;;;;5021459;28;20265;-65
2022/02/24 07:55:11;;;;;;;5.60;5.10;;;8.50;99.90;;;;;;5030116;28;20203;-61
2022/02/24 07:57:39;;;;;;;6.00;5.40;;;8.90;99.90;;;;;;5027855;28;20195;-63
2022/02/24 08:00:06;;;;;;;7.20;5.63;;;8.40;99.90;;;;;;5025923;28;20869;-75
2022/02/24 08:02:33;;;;;;;6.38;5.78;;;9.10;99.90;;;;;;5017931;28;20214;-63
2022/02/24 08:04:59;;;;;;;10.60;5.78;;;9.50;99.90;;;;;;5021003;28;20221;-66
2022/02/24 08:07:24;;;;;;;8.10;5.50;;;9.20;99.90;;;;;;5023410;28;20688;-64
2022/02/24 08:09:50;;;;;;;7.90;5.60;;;9.40;99.90;;;;;;5018634;28;20189;-65
2022/02/24 08:15:00;;;;;;;6.88;5.22;;;9.30;99.90;;;;;;5023961;28;20193;-65
2022/02/24 08:17:26;;;;;;;5.87;5.37;;;9.20;99.90;;;;;;5024720;28;20644;-65
2022/02/24 08:19:51;;;;;;;7.80;5.50;;;9.40;99.90;;;;;;5023017;28;20565;-63
2022/02/24 08:22:17;;;;;;;5.77;5.00;;;9.20;99.90;;;;;;5025521;28;20494;-63
2022/02/24 08:24:43;;;;;;;5.30;4.70;;;9.40;99.90;;;;;;5030434;28;20190;-62
2022/02/24 08:27:09;;;;;;;6.73;5.30;;;9.30;99.90;;;;;;5025397;28;20285;-62
2022/02/24 08:29:34;;;;;;;5.97;4.55;;;9.40;99.90;;;;;;5018314;28;20202;-62
2022/02/24 08:32:00;;;;;;;5.60;4.73;;;9.80;99.90;;;;;;5025781;28;20216;-65
2022/02/24 08:34:26;;;;;;;5.50;4.83;;;9.60;99.90;;;;;;5010962;28;20250;-63
2022/02/24 08:36:52;;;;;;;6.53;4.90;;;9.80;99.90;;;;;;5027919;28;20187;-71
2022/02/24 08:39:21;;;;;;;7.80;5.30;;;9.80;99.90;;;;;;5024610;28;20188;-67
2022/02/24 08:41:46;;;;;;;6.50;4.75;;;10.10;99.90;;;;;;5026579;28;20219;-67
2022/02/24 08:44:13;;;;;;;6.00;4.30;;;10.20;99.90;;;;;;5020039;28;20175;-64
2022/02/24 08:46:38;;;;;;;5.30;3.83;;;10.30;99.90;;;;;;5029712;28;20270;-72
2022/02/24 08:49:04;;;;;;;4.60;3.87;;;10.30;99.60;;;;;;5023689;28;20692;-70
2022/02/24 08:51:31;;;;;;;6.82;4.20;;;10.30;99.70;;;;;;5026483;28;20205;-64
2022/02/24 08:53:56;;;;;;;7.40;4.30;;;11.00;99.30;;;;;;5016615;28;20240;-67
2022/02/24 08:56:22;;;;;;;4.77;3.93;;;11.10;98.70;;;;;;5026252;28;20188;-64
2022/02/24 08:58:48;;;;;;;4.40;4.00;;;11.00;98.20;;;;;;5024479;28;20230;-65
2022/02/24 09:01:13;;;;;;;4.70;4.30;;;11.80;97.90;;;;;;5027683;28;20216;-67
2022/02/24 09:03:39;;;;;;;5.37;3.77;;;12.80;95.50;;;;;;5015666;28;20190;-67
2022/02/24 09:06:05;;;;;;;7.80;3.97;;;14.20;93.10;;;;;;5024302;28;20455;-66
2022/02/24 09:08:30;;;;;;;3.50;3.20;;;15.20;91.20;;;;;;5025760;28;20289;-68
2022/02/24 09:10:56;;;;;;;8.07;3.83;;;15.80;90.00;;;;;;5026193;28;20992;-65
2022/02/24 09:13:22;;;;;;;6.67;3.87;;;16.50;87.50;;;;;;5027512;28;20195;-63
2022/02/24 09:15:47;;;;;;;6.60;3.67;;;16.60;89.50;;;;;;5023995;28;20190;-65
2022/02/24 09:18:13;;;;;;;4.60;4.07;;;17.60;82.80;;;;;;5023483;28;20679;-62
2022/02/24 09:20:39;;;;;;;3.40;3.20;;;19.50;78.10;;;;;;5023298;28;20265;-64
2022/02/24 09:23:05;;;;;;;4.28;3.88;;;19.10;73.40;;;;;;5026688;28;20477;-64
2022/02/24 09:25:30;;;;;;;4.00;2.90;;;18.30;73.90;;;;;;5026833;28;20790;-64
2022/02/24 09:27:56;;;;;;;3.80;3.50;;;17.40;76.80;;;;;;5024364;28;20211;-62
2022/02/24 09:30:22;;;;;;;4.10;3.30;;;16.60;78.60;;;;;;5024873;28;20186;-65
2022/02/24 09:32:47;;;;;;;4.17;2.90;;;16.20;80.00;;;;;;5019930;28;20211;-62
2022/02/24 09:35:14;;;;;;;3.60;3.07;;;15.70;82.50;;;;;;5012314;28;20568;-63
2022/02/24 09:37:40;;;;;;;7.72;3.53;;;15.60;83.70;;;;;;5029703;28;20182;-68
2022/02/24 09:40:09;;;;;;;5.10;3.40;;;15.30;84.10;;;;;;5023837;28;20243;-66
2022/02/24 09:42:35;;;;;;;4.40;3.00;;;15.20;85.00;;;;;;5013407;28;20206;-61
2022/02/24 09:45:01;;;;;;;3.17;2.70;;;14.90;85.80;;;;;;5024925;28;20205;-66
2022/02/24 09:47:29;;;;;;;5.70;2.88;;;15.00;84.90;;;;;;5019947;28;20210;-64
2022/02/24 09:49:59;;;;;;;3.00;2.50;;;15.00;85.50;;;;;;5014028;28;20190;-63
2022/02/24 09:52:26;;;;;;;2.70;2.50;;;15.10;85.10;;;;;;5023117;28;20399;-66
2022/02/24 09:54:51;;;;;;;3.40;2.60;;;15.30;83.50;;;;;;5020788;28;20627;-63
2022/02/24 09:57:17;;;;;;;3.27;2.27;;;15.10;84.20;;;;;;5029431;28;20252;-62
2022/02/24 09:59:43;;;;;;;2.83;2.53;;;15.30;83.80;;;;;;5024608;28;20186;-64
2022/02/24 10:02:12;;;;;;;4.77;3.10;;;15.00;83.40;;;;;;5018724;28;20209;-65
2022/02/24 10:04:37;;;;;;;6.32;3.05;;;15.00;84.30;;;;;;5023605;28;20279;-70
2022/02/24 10:07:03;;;;;;;2.93;1.90;;;15.60;82.50;;;;;;5028210;28;20233;-65
2022/02/24 10:09:31;;;;;;;3.37;3.00;;;16.90;80.70;;;;;;5022515;28;20448;-69
2022/02/24 10:12:23;;;;;;;5.50;2.40;;;17.50;77.50;;;;;;5021598;28;20202;-68
2022/02/24 10:14:48;;;;;;;2.30;1.92;;;18.70;74.30;;;;;;5023500;28;20308;-68
2022/02/24 10:17:15;;;;;;;3.10;2.73;;;19.60;70.00;;;;;;5040392;28;20463;-65
2022/02/24 10:19:43;;;;;;;7.28;3.63;;;19.70;69.10;;;;;;5026488;28;20197;-65
2022/02/24 10:22:15;;;;;;;3.00;2.10;;;19.30;67.40;;;;;;5026276;28;20592;-65
2022/02/24 10:24:43;;;;;;;2.70;2.30;;;19.40;67.80;;;;;;5029975;28;20247;-69
2022/02/24 10:27:26;;;;;;;3.60;2.05;;;19.90;65.90;;;;;;5030294;28;20190;-74
2022/02/24 10:30:14;;;;;;;2.40;2.20;;;20.50;63.90;;;;;;5029447;28;20182;-68
2022/02/24 10:32:45;;;;;;;3.60;1.80;;;20.60;62.40;;;;;;5024115;28;20248;-66
2022/02/24 10:35:20;;;;;;;3.05;1.77;;;20.00;62.70;;;;;;5024361;28;20537;-64
2022/02/24 10:38:02;;;;;;;2.65;1.60;;;19.40;63.80;;;;;;5040985;28;20192;-66
2022/02/24 10:40:49;;;;;;;2.72;2.28;;;19.00;65.40;;;;;;5041923;28;20190;-67
2022/02/24 10:43:17;;;;;;;4.35;1.77;;;18.30;66.90;;;;;;5022918;28;20216;-62
2022/02/24 10:45:46;;;;;;;2.20;1.58;;;17.80;68.20;;;;;;5026028;28;20312;-62
2022/02/24 10:48:12;;;;;;;3.05;2.35;;;18.20;69.10;;;;;;5019908;28;20256;-62
2022/02/24 10:51:00;;;;;;;4.57;2.20;;;17.50;69.30;;;;;;5021587;28;20178;-61
2022/02/24 10:53:29;;;;;;;2.53;1.80;;;17.50;69.50;;;;;;5023995;28;20264;-63
2022/02/24 10:56:11;;;;;;;3.10;1.98;;;17.20;69.70;;;;;;5025942;28;20175;-61
2022/02/24 10:58:42;;;;;;;2.45;1.83;;;17.40;70.60;;;;;;5016567;28;20232;-61
2022/02/24 11:01:21;;;;;;;1.80;1.67;;;17.20;69.90;;;;;;5029995;28;20214;-61
2022/02/24 11:03:53;;;;;;;2.40;1.90;;;17.20;70.00;;;;;;5024807;28;20206;-69
2022/02/24 11:06:21;;;;;;;2.60;2.38;;;17.30;70.20;;;;;;5028445;28;20675;-68
2022/02/24 11:08:47;;;;;;;3.75;1.75;;;17.20;69.80;;;;;;5027478;28;20206;-63
2022/02/24 11:11:25;;;;;;;3.40;2.08;;;17.00;69.30;;;;;;5024442;28;20786;-62
2022/02/24 11:13:52;;;;;;;3.45;1.90;;;17.40;70.40;;;;;;5015091;28;20201;-60
2022/02/24 11:16:18;;;;;;;4.63;2.22;;;17.70;69.70;;;;;;5020251;28;20194;-60
2022/02/24 11:18:45;;;;;;;4.40;2.45;;;18.00;68.80;;;;;;5021800;28;20229;-60
2022/02/24 11:21:13;;;;;;;3.45;1.88;;;18.00;68.40;;;;;;5014138;28;20221;-60
2022/02/24 11:23:40;;;;;;;3.53;1.80;;;18.20;66.90;;;;;;5024196;28;20179;-60
2022/02/24 11:26:12;;;;;;;2.33;1.70;;;18.10;67.50;;;;;;5031564;28;20193;-61
2022/02/24 11:28:46;;;;;;;2.10;1.70;;;18.10;67.40;;;;;;5028082;28;20218;-60
2022/02/24 11:31:44;;;;;;;1.70;1.30;;;18.40;66.40;;;;;;5025522;28;20717;-59
2022/02/24 11:34:10;;;;;;;4.18;2.08;;;18.60;65.00;;;;;;5008322;28;20665;-59
2022/02/24 11:36:44;;;;;;;4.03;2.00;;;18.10;64.60;;;;;;5026238;28;20185;-60
2022/02/24 11:39:16;;;;;;;3.33;2.00;;;18.20;65.80;;;;;;5023112;28;20233;-59
2022/02/24 11:42:02;;;;;;;2.85;2.42;;;18.10;64.70;;;;;;5023475;28;20233;-60
2022/02/24 11:44:33;;;;;;;1.80;1.45;;;17.70;64.70;;;;;;5014465;28;20198;-60
2022/02/24 11:47:11;;;;;;;2.38;1.67;;;17.70;64.90;;;;;;5017873;28;20232;-61
2022/02/24 11:49:59;;;;;;;5.20;2.30;;;17.90;63.30;;;;;;5024699;28;20548;-60
2022/02/24 11:52:27;;;;;;;2.92;1.30;;;17.80;62.90;;;;;;5023071;28;20694;-60
2022/02/24 11:54:54;;;;;;;2.10;1.90;;;17.60;64.10;;;;;;5025418;28;20214;-60
2022/02/24 11:57:31;;;;;;;3.00;1.60;;;17.10;66.90;;;;;;5023100;28;20183;-60
2022/02/24 12:00:12;;;;;;;2.47;2.10;;;17.20;65.20;;;;;;5026963;28;20201;-62
2022/02/24 12:02:49;;;;;;;1.95;1.50;;;17.10;64.60;;;;;;5018159;28;20315;-61
2022/02/24 12:05:29;;;;;;;1.20;1.10;;;16.70;64.60;;;;;;5017083;28;20212;-68
2022/02/24 12:08:06;;;;;;;1.77;1.60;;;16.40;64.90;;;;;;5023953;28;20296;-70
2022/02/24 12:10:47;;;;;;;2.08;1.30;;;16.30;64.80;;;;;;5028555;28;20329;-65
2022/02/24 12:13:29;;;;;;;2.20;1.55;;;16.00;65.20;;;;;;5026088;28;20186;-64
2022/02/24 12:16:18;;;;;;;2.10;1.55;;;16.00;66.40;;;;;;5017371;28;20205;-64
2022/02/24 12:18:45;;;;;;;1.75;1.52;;;16.00;65.90;;;;;;5024489;28;20214;-65
2022/02/24 12:21:26;;;;;;;3.90;1.70;;;16.30;66.30;;;;;;5029664;28;20214;-66
2022/02/24 12:23:54;;;;;;;2.45;1.55;;;16.30;66.00;;;;;;5030004;28;20209;-62
2022/02/24 12:26:38;;;;;;;1.80;1.20;;;15.90;65.50;;;;;;5024558;28;20186;-62
2022/02/24 12:29:43;;;;;;;4.57;1.73;;;16.20;65.30;;;;;;5012202;28;20807;-62
2022/02/24 12:32:12;;;;;;;2.10;1.27;;;16.00;65.30;;;;;;5005611;28;20241;-64
2022/02/24 12:34:37;;;;;;;1.75;1.50;;;16.20;65.20;;;;;;5019875;28;20191;-66
2022/02/24 12:37:13;;;;;;;2.20;1.80;;;16.10;66.20;;;;;;5028618;28;20212;-64
2022/02/24 12:39:40;;;;;;;11.95;5.90;;;16.30;65.50;;;;;;5028748;28;20182;-67
2022/02/24 12:42:08;;;;;;;2.13;1.63;;;16.20;65.90;;;;;;5028095;28;20226;-66
2022/02/24 12:44:36;;;;;;;3.40;1.40;;;16.10;66.10;;;;;;5021428;28;20210;-69
2022/02/24 12:47:04;;;;;;;2.30;1.52;;;15.90;66.20;;;;;;5020580;28;20699;-68
2022/02/24 12:49:55;;;;;;;6.50;1.90;;;15.70;66.20;;;;;;5019551;28;20180;-63
2022/02/24 12:52:29;;;;;;;3.17;1.60;;;15.90;66.50;;;;;;5023503;28;20264;-62
2022/02/24 12:55:00;;;;;;;3.38;1.52;;;15.90;66.90;;;;;;5021564;28;20175;-63
2022/02/24 12:57:26;;;;;;;2.28;1.60;;;15.80;66.80;;;;;;5016439;28;20189;-65